Flight Track Log - Related Links

Times and Time Zones

All times are in EDT time to prevent confusion due to time zone crossing. See the N28705 flight status page for this flight to view local times or setup timezone preferences in your user account.

Time Position Orientation Groundspeed Altitude Reporting Facility
EDT Latitude Longitude Course Direction KTS MPH feet Rate Location/Type
Sat 05:45:00 PM 42.7353 -73.8703 218° Southwest 101 116 2,800  Level Boston Center
Sat 05:46:01 PM 42.7142 -73.8925 218° Southwest 101 116 3,400 614 Climbing Boston Center
Sat 05:47:07 PM 42.6908 -73.9175 219° Southwest 102 117 4,100 661 Climbing Boston Center
Sat 05:48:08 PM 42.6656 -73.9450 221° Southwest 104 120 4,800 689 Climbing Boston Center
Sat 05:49:09 PM 42.6422 -73.9728 230° Southwest 106 122 5,500 595 Climbing Boston Center
Sat 05:50:09 PM 42.6253 -74.0006 221° Southwest 105 121 6,000 496 Climbing Boston Center
Sat 05:51:10 PM 42.6019 -74.0281 226° Southwest 107 123 6,500 246 Climbing Boston Center
Sat 05:52:11 PM 42.5786 -74.0614 221° Southwest 121 139 6,500  Level Boston Center
Sat 05:53:11 PM 42.5508 -74.0944 226° Southwest 129 148 6,500  Level Boston Center
Sat 05:54:12 PM 42.5253 -74.1303 224° Southwest 127 146 6,500 -50 Level Boston Center
Sat 05:55:12 PM 42.5000 -74.1636 221° Southwest 126 145 6,400 -50 Descending Boston Center
Sat 05:56:13 PM 42.4744 -74.1939 224° Southwest 125 144 6,400  Level Boston Center
Sat 05:57:08 PM 42.4511 -74.2242 213° Southwest 126 145 6,400  Level Boston Center
Sat 05:58:00 PM 42.4297 -74.2431 224° Southwest 124 143 6,400  Level Boston Center
Sat 05:59:00 PM 42.4064 -74.2733 224° Southwest 124 143 6,400  Level Boston Center
Sat 06:00:00 PM 42.3767 -74.3119 226° Southwest 124 143 6,400  Level Boston Center
Sat 06:01:00 PM 42.3553 -74.3422 223° Southwest 124 143 6,400  Level Boston Center
Sat 06:02:00 PM 42.3297 -74.3750 226° Southwest 118 136 6,400  Level Boston Center
Sat 06:03:00 PM 42.3019 -74.4136 226° Southwest 123 142 6,400 100 Level Boston Center
Sat 06:04:00 PM 42.2783 -74.4464 224° Southwest 123 142 6,600 150 Climbing Boston Center
Sat 06:05:00 PM 42.2550 -74.4767 228° Southwest 123 142 6,700 50 Climbing Boston Center
Sat 06:06:00 PM 42.2292 -74.5150 224° Southwest 128 147 6,700 -50 Level Boston Center
Sat 06:07:00 PM 42.2036 -74.5478 228° Southwest 134 154 6,600  Descending Boston Center
Sat 06:08:00 PM 42.1800 -74.5833 221° Southwest 134 154 6,700  Climbing Boston Center
Sat 06:09:00 PM 42.1544 -74.6133 228° Southwest 134 154 6,600 -50 Descending Boston Center
Sat 06:10:00 PM 42.1286 -74.6517 221° Southwest 134 154 6,600  Level Boston Center
Sat 06:11:00 PM 42.1031 -74.6814 225° Southwest 134 154 6,600  Level Boston Center
Sat 06:12:00 PM 42.0731 -74.7225 210° Southwest 134 154 6,600 150 Level Boston Center
Sat 06:13:00 PM 42.0456 -74.7439 221° Southwest 134 154 6,900 350 Climbing Boston Center
Sat 06:14:00 PM 42.0200 -74.7736 221° Southwest 129 148 7,300 450 Climbing Boston Center
Sat 06:15:00 PM 41.9900 -74.8089 222° Southwest 129 148 7,800 88 Climbing Boston Center
Sat 06:26:29 PM 41.6617 -75.1969 220° Southwest 138 159 8,400 48 Climbing New York Center
Sat 06:27:29 PM 41.6336 -75.2283 220° Southwest 143 165 8,400  Level New York Center
Sat 06:28:30 PM 41.6031 -75.2622 215° Southwest 131 151 8,400  Level New York Center
Sat 06:29:28 PM 41.5728 -75.2908 226° Southwest 126 145 8,400  Level New York Center
Sat 06:30:28 PM 41.5444 -75.3303 222° Southwest 138 159 8,400  Level New York Center
Sat 06:31:29 PM 41.5225 -75.3567 224° Southwest 143 165 8,400  Level New York Center
Sat 06:32:29 PM 41.4961 -75.3908 222° Southwest 143 165 8,400  Level New York Center
Sat 06:33:28 PM 41.4656 -75.4275 224° Southwest 143 165 8,400  Level New York Center
Sat 06:34:29 PM 41.4392 -75.4617 222° Southwest 138 159 8,400  Level New York Center
Sat 06:35:30 PM 41.4108 -75.4956 219° Southwest 138 159 8,400  Level New York Center
Sat 06:36:28 PM 41.3847 -75.5242 222° Southwest 143 165 8,400  Level New York Center
Sat 06:37:28 PM 41.3583 -75.5556 222° Southwest 143 165 8,400  Level New York Center
Sat 06:38:30 PM 41.3278 -75.5919 220° Southwest 143 165 8,400  Level New York Center
Sat 06:39:28 PM 41.2994 -75.6231 220° Southwest 143 165 8,400  Level New York Center
Sat 06:40:28 PM 41.2711 -75.6542 217° Southwest 143 165 8,400  Level New York Center
Sat 06:41:29 PM 41.2428 -75.6825 216° Southwest 143 165 8,400  Level New York Center
Sat 06:42:28 PM 41.2103 -75.7133 219° Southwest 143 165 8,400  Level New York Center
Sat 06:43:30 PM 41.1819 -75.7442 220° Southwest 138 159 8,400  Level New York Center
Sat 06:44:30 PM 41.1536 -75.7753 222° Southwest 138 159 8,400  Level New York Center
Sat 06:45:28 PM 41.1250 -75.8089 219° Southwest 138 159 8,400  Level New York Center
Sat 06:46:28 PM 41.0989 -75.8372 222° Southwest 138 159 8,400  Level New York Center
Sat 06:47:28 PM 41.0725 -75.8683 219° Southwest 138 159 8,400  Level New York Center
Sat 06:48:30 PM 41.0419 -75.9017 217° Southwest 138 159 8,400  Level New York Center
Sat 06:49:30 PM 41.0114 -75.9325 221° Southwest 138 159 8,400  Level New York Center
Sat 06:50:27 PM 40.9850 -75.9633 219° Southwest 138 159 8,400  Level New York Center
Sat 06:51:30 PM 40.9589 -75.9917 224° Southwest 138 159 8,400  Level New York Center
Sat 06:52:28 PM 40.9344 -76.0228 220° Southwest 138 159 8,400  Level New York Center
Sat 06:53:28 PM 40.9017 -76.0586 219° Southwest 138 159 8,400  Level New York Center
Sat 06:54:28 PM 40.8708 -76.0919 224° Southwest 138 159 8,400  Level New York Center
Sat 06:55:29 PM 40.8467 -76.1231 224° Southwest 138 159 8,400  Level New York Center
Sat 06:56:29 PM 40.8200 -76.1567 221° Southwest 143 165 8,400  Level New York Center
Sat 06:57:30 PM 40.7869 -76.1950 222° Southwest 143 165 8,400  Level New York Center
Sat 06:58:28 PM 40.7561 -76.2311 221° Southwest 143 165 8,400  Level New York Center
Sat 06:59:29 PM 40.7275 -76.2644 221° Southwest 143 165 8,400  Level New York Center
Sat 07:00:29 PM 40.7033 -76.2925 219° Southwest 143 165 8,400  Level New York Center
Sat 07:01:30 PM 40.6728 -76.3256 221° Southwest 138 159 8,400  Level New York Center
Sat 07:02:30 PM 40.6439 -76.3589 221° Southwest 138 159 8,400  Level New York Center
Sat 07:03:30 PM 40.6153 -76.3919 222° Southwest 138 159 8,400  Level New York Center
Sat 07:04:28 PM 40.5911 -76.4203 219° Southwest 138 159 8,400 51 Level New York Center
Sat 07:05:28 PM 40.5625 -76.4506 213° Southwest 143 165 8,500  Climbing New York Center
Sat 07:06:28 PM 40.5300 -76.4781 210° Southwest 143 165 8,400 -50 Descending New York Center
Sat 07:07:29 PM 40.4975 -76.5025 209° Southwest 143 165 8,400  Level New York Center
Sat 07:08:29 PM 40.4672 -76.5247 208° Southwest 137 158 8,400 -99 Level New York Center
Sat 07:09:30 PM 40.4392 -76.5442 211° Southwest 137 158 8,200 -550 Descending New York Center
Sat 07:10:29 PM 40.4044 -76.5711 211° Southwest 137 158 7,300 -908 Descending New York Center
Sat 07:11:29 PM 40.3764 -76.5933 214° Southwest 126 145 6,400 -1,050 Descending New York Center
Sat 07:12:29 PM 40.3481 -76.6181 213° Southwest 126 145 5,200 -1,150 Descending New York Center
Sat 07:13:29 PM 40.3219 -76.6406 237° Southwest 131 151 4,100 -1,100 Descending New York Center
Sat 07:21:15 PM 40.2167 -76.8500 294° West  Level FlightAware Approximate
Sat 07:22:15 PM 40.2313 -76.8927 114° Southeast  Level Estimated
Sat 07:23:15 PM 40.2167 -76.8500 114° Southeast  Level FlightAware Approximate

Login

Don't have an account? Register now (free) for customized features, flight alerts, and more!